KPWK/PWK METAR and TAF weather

Enter ICAO airport designator
Station Type Date Time Source
KPWK METAR 2023/06/01 15:52 UTC NOAA

KPWK 011552Z 00000KT 10SM FEW120 29/15 A3009 RMK AO2 SLP184 T02890150


Station Type Date Time Source
KPWK Decoded METAR 2023/06/01 15:52 UTC NOAA

CHICAGO EXECUTIVE AIRPORT, IL, United States (KPWK) 42-07N 087-54W 203M
Jun 01, 2023 - 11:52 AM EDT / 2023.06.01 1552 UTC
Wind: Calm:0
Visibility: 10 mile(s):0
Sky conditions: mostly clear
Temperature: 84.0 F (28.9 C)
Dew Point: 59.0 F (15.0 C)
Relative Humidity: 42%
Pressure (altimeter): 30.09 in. Hg (1018 hPa)
ob: KPWK 011552Z 00000KT 10SM FEW120 29/15 A3009 RMK AO2 SLP184 T02890150
cycle: 16

Station Type Date Time Source
KPWK TAF UTC NOAA

Error!

Example: see airport list